Avery Island, Louisiana
Current Conditions -  °F | °C
As of 3:53 PM on Sunday 23 Nov 2014 (Local Time) from KARA Reporting Station
Clear Clear  
Wind Chill: 74°   Ceiling: Unl
Heat Index: 74°   Visibility: 10mi
Dew Point: 63°   Wind: 18mph
Humidity: 68%   Direction: 230°SW
Pressure: 29.63"   Gusts: 29mph
Location:  29.91°N, 91.91°W
Report Text: KARA 232153Z 23016G25KT 10SM CLR 23/17 A2963 RMK AO2 SLP032 T02330172
Loading
Personal Weather Stations






























Interactive Weather Map New forecast layout! Learn more

10-Day Weather Forecast

Advertisements
Track Severe Weather on mobile